Time;durP1;ratioP1;P1;durP2;ratioP2;P2;SDS_P1;SDS_P2;PMS_P1;PMS_P2;Temp;Humidity;BMP_temperature;BMP_pressure;BME280_temperature;BME280_humidity;BME280_pressure;Samples;Min_cycle;Max_cycle;Signal;HPM_P1;HPM_P2
2021/11/15 00:01:23;;;;;;;21.43;11.80;;;8.00;99.90;;;;;;5042059;28;20529;-56
2021/11/15 00:03:50;;;;;;;17.43;10.77;;;8.10;99.90;;;;;;5047784;28;20950;-55
2021/11/15 00:06:17;;;;;;;19.20;11.30;;;8.10;99.90;;;;;;5045273;28;20448;-56
2021/11/15 00:08:44;;;;;;;17.80;11.47;;;8.10;99.90;;;;;;5031705;28;20837;-56
2021/11/15 00:11:11;;;;;;;19.77;11.60;;;8.00;99.90;;;;;;5031335;28;20510;-56
2021/11/15 00:13:39;;;;;;;14.20;10.00;;;8.00;99.90;;;;;;5042115;28;20531;-55
2021/11/15 00:16:08;;;;;;;18.60;11.70;;;8.10;99.90;;;;;;5051163;28;20501;-56
2021/11/15 00:18:35;;;;;;;16.60;10.80;;;8.10;99.90;;;;;;5050967;28;20444;-55
2021/11/15 00:21:02;;;;;;;16.30;11.10;;;8.10;99.90;;;;;;5051251;28;20528;-55
2021/11/15 00:23:29;;;;;;;16.60;11.40;;;8.10;99.90;;;;;;5051049;28;20934;-56
2021/11/15 00:25:56;;;;;;;12.97;9.77;;;8.10;99.90;;;;;;5051343;28;20451;-56
2021/11/15 00:28:23;;;;;;;16.20;10.83;;;8.10;99.90;;;;;;5051103;28;20478;-55
2021/11/15 00:30:50;;;;;;;13.73;9.57;;;8.10;99.90;;;;;;5051147;28;20538;-55
2021/11/15 00:33:18;;;;;;;13.87;10.03;;;8.10;99.90;;;;;;5049890;28;20444;-55
2021/11/15 00:35:45;;;;;;;17.03;11.23;;;8.10;99.90;;;;;;5051315;28;20832;-56
2021/11/15 00:38:12;;;;;;;15.10;9.60;;;7.90;99.90;;;;;;5051133;28;20462;-56
2021/11/15 00:40:39;;;;;;;14.37;10.17;;;7.90;99.90;;;;;;5050760;28;20462;-55
2021/11/15 00:43:07;;;;;;;16.27;10.57;;;8.00;99.90;;;;;;5050846;28;21077;-56
2021/11/15 00:45:35;;;;;;;16.60;9.87;;;8.00;99.90;;;;;;5051367;28;20509;-55
2021/11/15 00:48:02;;;;;;;13.80;9.40;;;8.00;99.90;;;;;;5051111;28;20454;-55
2021/11/15 00:50:31;;;;;;;12.80;9.10;;;8.00;99.90;;;;;;5031218;28;20458;-55
2021/11/15 00:52:58;;;;;;;13.13;9.40;;;7.90;99.90;;;;;;5034206;28;20466;-55
2021/11/15 00:55:27;;;;;;;13.83;9.13;;;7.90;99.90;;;;;;5051048;28;20448;-55
2021/11/15 00:57:54;;;;;;;15.47;10.23;;;7.80;99.90;;;;;;5034666;28;20506;-55
2021/11/15 01:00:25;;;;;;;16.87;9.77;;;7.80;99.90;;;;;;5031204;28;20457;-55
2021/11/15 01:02:53;;;;;;;18.03;10.03;;;7.80;99.90;;;;;;5048673;28;20480;-55
2021/11/15 01:05:20;;;;;;;14.03;8.93;;;7.80;99.90;;;;;;5051084;28;20459;-55
2021/11/15 01:07:48;;;;;;;20.77;12.10;;;7.80;99.90;;;;;;5050717;28;20980;-55
2021/11/15 01:10:18;;;;;;;20.30;12.13;;;7.80;99.90;;;;;;5050128;28;20493;-56
2021/11/15 01:12:45;;;;;;;19.07;10.60;;;7.50;99.90;;;;;;5053638;28;20463;-56
2021/11/15 01:15:15;;;;;;;18.33;10.60;;;7.40;99.90;;;;;;5054814;28;20551;-55
2021/11/15 01:17:43;;;;;;;17.40;10.40;;;7.50;99.90;;;;;;5054066;28;20516;-55
2021/11/15 01:20:13;;;;;;;17.63;10.67;;;7.50;99.90;;;;;;5054555;28;20458;-55
2021/11/15 01:22:40;;;;;;;20.10;11.10;;;7.50;99.90;;;;;;5045742;28;20519;-55
2021/11/15 01:25:10;;;;;;;19.30;10.87;;;7.50;99.90;;;;;;5053108;28;20850;-55
2021/11/15 01:27:38;;;;;;;18.67;10.60;;;7.40;99.90;;;;;;5052355;28;20475;-55
2021/11/15 01:30:07;;;;;;;15.93;10.27;;;7.50;99.90;;;;;;5054012;28;20502;-55
2021/11/15 01:32:34;;;;;;;16.80;11.30;;;7.50;99.90;;;;;;5053382;28;20471;-55
2021/11/15 01:35:01;;;;;;;16.90;10.50;;;7.50;99.90;;;;;;5054327;28;20447;-55
2021/11/15 01:37:31;;;;;;;18.33;11.10;;;7.50;99.90;;;;;;5054241;28;20455;-55
2021/11/15 01:39:58;;;;;;;18.23;11.07;;;7.50;99.90;;;;;;5054139;28;20505;-55
2021/11/15 01:42:27;;;;;;;17.77;10.33;;;7.40;99.90;;;;;;5053981;28;20540;-55
2021/11/15 01:44:54;;;;;;;18.30;10.93;;;7.40;99.90;;;;;;5035560;28;20528;-55
2021/11/15 01:47:21;;;;;;;16.70;10.87;;;7.40;99.90;;;;;;5054297;28;20451;-56
2021/11/15 01:49:48;;;;;;;12.57;9.03;;;7.30;99.90;;;;;;5054472;28;20450;-55
2021/11/15 01:52:16;;;;;;;13.30;9.23;;;7.20;99.90;;;;;;5053618;28;20470;-56
2021/11/15 01:54:43;;;;;;;9.80;8.37;;;7.20;99.90;;;;;;5054392;28;20451;-55
2021/11/15 01:57:12;;;;;;;11.53;8.40;;;7.10;99.90;;;;;;5053249;28;20443;-55
2021/11/15 01:59:40;;;;;;;10.13;8.37;;;7.10;99.90;;;;;;5051446;28;20451;-54
2021/11/15 02:02:08;;;;;;;11.30;7.80;;;7.10;99.90;;;;;;5053609;28;20532;-55
2021/11/15 02:04:35;;;;;;;11.03;8.33;;;7.10;99.90;;;;;;5053978;28;20458;-55
2021/11/15 02:07:02;;;;;;;12.23;7.70;;;6.90;99.90;;;;;;5053628;28;20456;-55
2021/11/15 02:09:29;;;;;;;9.47;6.80;;;6.90;99.90;;;;;;5053645;28;20498;-54
2021/11/15 02:11:57;;;;;;;19.70;10.03;;;6.90;99.90;;;;;;5053157;28;20472;-55
2021/11/15 02:14:24;;;;;;;9.80;7.43;;;6.90;99.90;;;;;;5053340;28;20451;-55
2021/11/15 02:16:53;;;;;;;10.50;7.37;;;6.90;99.90;;;;;;5053935;28;20451;-55
2021/11/15 02:19:20;;;;;;;10.50;7.40;;;6.90;99.90;;;;;;5053007;28;20451;-55
2021/11/15 02:21:49;;;;;;;10.17;7.20;;;6.90;99.90;;;;;;5053465;28;20463;-55
2021/11/15 02:24:17;;;;;;;11.23;7.60;;;6.90;99.90;;;;;;5053057;28;20553;-54
2021/11/15 02:26:44;;;;;;;9.80;6.90;;;6.80;99.90;;;;;;5053010;28;20464;-55
2021/11/15 02:29:11;;;;;;;9.30;6.57;;;6.80;99.90;;;;;;5053100;28;20458;-55
2021/11/15 02:31:38;;;;;;;11.20;7.33;;;6.80;99.90;;;;;;5078741;22;20892;-50
2021/11/15 02:34:05;;;;;;;11.73;7.40;;;6.80;99.90;;;;;;5053321;28;20509;-50
2021/11/15 02:36:33;;;;;;;10.67;7.53;;;6.80;99.90;;;;;;5053170;28;20934;-51
2021/11/15 02:39:02;;;;;;;10.70;7.70;;;6.80;99.90;;;;;;5053204;28;20650;-51
2021/11/15 02:41:29;;;;;;;12.60;8.43;;;6.90;99.90;;;;;;5052484;28;20450;-51
2021/11/15 02:43:56;;;;;;;11.43;7.60;;;6.70;99.90;;;;;;5052977;28;20479;-51
2021/11/15 02:46:23;;;;;;;14.70;9.87;;;6.70;99.90;;;;;;5052423;28;20460;-48
2021/11/15 02:48:50;;;;;;;11.60;8.10;;;6.70;99.90;;;;;;5052947;28;20501;-48
2021/11/15 02:51:17;;;;;;;12.03;7.90;;;6.70;99.90;;;;;;5052822;28;20498;-48
2021/11/15 02:53:45;;;;;;;12.27;8.20;;;6.70;99.90;;;;;;5052541;28;20464;-49
2021/11/15 02:56:13;;;;;;;14.00;8.13;;;6.70;99.90;;;;;;5052138;28;20468;-48
2021/11/15 02:58:41;;;;;;;11.00;7.73;;;6.70;99.90;;;;;;5050690;28;20447;-49
2021/11/15 03:01:10;;;;;;;10.37;7.23;;;6.80;99.90;;;;;;5052430;28;20440;-49
2021/11/15 03:03:37;;;;;;;9.70;7.30;;;6.80;99.90;;;;;;5051665;28;20483;-48
2021/11/15 03:06:05;;;;;;;14.57;8.87;;;6.80;99.90;;;;;;5052495;28;20455;-49
2021/11/15 03:08:32;;;;;;;9.63;7.70;;;6.80;99.90;;;;;;5052690;28;20446;-48
2021/11/15 03:11:02;;;;;;;11.73;7.20;;;6.80;99.90;;;;;;5052268;28;20869;-48
2021/11/15 03:13:33;;;;;;;10.93;7.77;;;6.70;99.90;;;;;;5051961;28;20921;-49
2021/11/15 03:16:01;;;;;;;12.27;7.17;;;6.70;99.90;;;;;;5052458;28;20501;-49
2021/11/15 03:18:30;;;;;;;11.93;7.50;;;6.80;99.90;;;;;;5051972;28;20567;-48
2021/11/15 03:21:00;;;;;;;11.27;7.40;;;6.80;99.90;;;;;;5052238;28;20453;-48
2021/11/15 03:23:29;;;;;;;12.43;7.53;;;6.60;99.90;;;;;;5051733;28;20543;-48
2021/11/15 03:25:57;;;;;;;11.20;7.90;;;6.70;99.90;;;;;;5052184;28;20501;-49
2021/11/15 03:28:26;;;;;;;10.03;7.63;;;6.50;99.90;;;;;;5052151;28;20942;-49
2021/11/15 03:30:56;;;;;;;9.93;7.03;;;6.40;99.90;;;;;;5051462;28;20456;-48
2021/11/15 03:33:24;;;;;;;10.83;7.83;;;6.50;99.90;;;;;;5051810;28;20537;-48
2021/11/15 03:35:51;;;;;;;10.63;7.60;;;6.70;99.90;;;;;;5050936;28;21057;-48
2021/11/15 03:38:18;;;;;;;13.37;8.07;;;6.60;99.90;;;;;;5051970;28;20452;-49
2021/11/15 03:40:46;;;;;;;9.90;7.40;;;6.60;99.90;;;;;;5051976;28;20444;-48
2021/11/15 03:43:13;;;;;;;10.97;7.90;;;6.60;99.90;;;;;;5051653;28;20454;-49
2021/11/15 03:45:42;;;;;;;8.07;6.57;;;6.50;99.90;;;;;;5051923;28;20451;-48
2021/11/15 03:48:12;;;;;;;9.40;6.80;;;6.50;99.90;;;;;;5051431;28;20454;-49
2021/11/15 03:50:40;;;;;;;10.13;7.23;;;6.50;99.90;;;;;;5051558;28;21002;-48
2021/11/15 03:53:09;;;;;;;8.43;6.67;;;6.50;99.90;;;;;;5051712;28;20455;-49
2021/11/15 03:55:36;;;;;;;9.47;7.03;;;6.40;99.90;;;;;;5051604;28;20452;-48
2021/11/15 03:58:03;;;;;;;9.47;7.80;;;6.40;99.90;;;;;;5051455;28;20944;-48
2021/11/15 04:00:31;;;;;;;11.13;8.20;;;6.40;99.90;;;;;;5051147;28;20477;-48
2021/11/15 04:03:03;;;;;;;10.53;8.13;;;6.40;99.90;;;;;;5051300;28;20484;-48
2021/11/15 04:05:36;;;;;;;10.87;7.80;;;6.30;99.90;;;;;;5051627;28;20448;-49
2021/11/15 04:08:05;;;;;;;13.00;8.50;;;6.20;99.90;;;;;;5051464;28;20459;-49
2021/11/15 04:10:34;;;;;;;10.33;8.13;;;6.30;99.90;;;;;;5051354;28;21185;-48
2021/11/15 04:13:05;;;;;;;10.33;8.10;;;6.20;99.90;;;;;;5051147;28;20984;-48
2021/11/15 04:15:32;;;;;;;11.50;8.20;;;6.20;99.90;;;;;;5051623;28;20498;-47
2021/11/15 04:18:01;;;;;;;10.53;7.70;;;6.30;99.90;;;;;;5051102;28;20810;-49
2021/11/15 04:20:30;;;;;;;12.47;8.50;;;6.30;99.90;;;;;;5050961;28;20972;-48
2021/11/15 04:22:59;;;;;;;14.80;9.90;;;6.20;99.90;;;;;;5031590;28;20470;-48
2021/11/15 04:25:26;;;;;;;12.67;8.70;;;6.10;99.90;;;;;;5031561;28;20445;-49
2021/11/15 04:27:53;;;;;;;15.20;9.53;;;6.10;99.90;;;;;;5047589;28;21029;-49
2021/11/15 04:30:20;;;;;;;13.23;8.47;;;6.10;99.90;;;;;;5051157;28;20443;-48
2021/11/15 04:32:47;;;;;;;10.93;8.90;;;6.20;99.90;;;;;;5050732;28;20472;-48
2021/11/15 04:35:18;;;;;;;11.07;8.73;;;6.30;99.90;;;;;;5050883;28;20495;-49
2021/11/15 04:37:47;;;;;;;11.30;8.83;;;6.40;99.90;;;;;;5051509;28;20455;-48
2021/11/15 04:40:16;;;;;;;11.13;9.10;;;6.40;99.90;;;;;;5051082;28;20455;-48
2021/11/15 04:42:44;;;;;;;13.63;9.33;;;6.40;99.90;;;;;;5051140;28;20523;-48
2021/11/15 04:45:12;;;;;;;13.10;9.10;;;6.30;99.90;;;;;;5050871;28;20565;-48
2021/11/15 04:47:39;;;;;;;14.63;8.67;;;6.30;99.90;;;;;;5054480;28;20497;-49
2021/11/15 04:50:08;;;;;;;11.67;8.23;;;6.30;99.90;;;;;;5055174;28;20455;-49
2021/11/15 04:52:35;;;;;;;11.43;8.80;;;6.40;99.90;;;;;;5054939;28;20514;-48
2021/11/15 04:55:03;;;;;;;12.27;8.80;;;6.50;99.90;;;;;;5055190;28;20447;-49
2021/11/15 04:57:34;;;;;;;14.00;9.37;;;6.50;99.90;;;;;;5053886;28;20555;-48
2021/11/15 05:00:01;;;;;;;13.13;10.03;;;6.50;99.90;;;;;;5054029;28;20525;-49
2021/11/15 05:02:28;;;;;;;14.33;9.80;;;6.50;99.90;;;;;;5054686;28;20475;-48
2021/11/15 05:04:55;;;;;;;15.67;9.83;;;6.50;99.90;;;;;;5054852;28;20900;-48
2021/11/15 05:07:22;;;;;;;14.63;9.93;;;6.40;99.90;;;;;;5054759;28;20505;-48
2021/11/15 05:09:49;;;;;;;15.40;10.00;;;6.30;99.90;;;;;;5034784;28;20449;-49
2021/11/15 05:12:17;;;;;;;15.03;9.70;;;6.40;99.90;;;;;;5051592;28;20521;-49
2021/11/15 05:14:45;;;;;;;15.50;10.60;;;6.40;99.90;;;;;;5054748;28;20987;-49
2021/11/15 05:17:12;;;;;;;16.30;10.67;;;6.50;99.90;;;;;;5054600;28;20451;-48
2021/11/15 05:19:39;;;;;;;15.00;9.87;;;6.50;99.90;;;;;;5054322;28;20451;-48
2021/11/15 05:22:06;;;;;;;15.67;11.03;;;6.60;99.90;;;;;;5054354;28;20516;-48
2021/11/15 05:24:33;;;;;;;15.17;10.73;;;6.60;99.90;;;;;;5051903;28;20487;-48
2021/11/15 05:27:00;;;;;;;21.10;12.90;;;6.60;99.90;;;;;;5054770;28;20512;-48
2021/11/15 05:29:27;;;;;;;20.63;12.57;;;6.60;99.90;;;;;;5054021;28;20501;-48
2021/11/15 05:31:56;;;;;;;18.20;11.77;;;6.50;99.90;;;;;;5054133;28;20486;-48
2021/11/15 05:34:23;;;;;;;19.03;12.47;;;6.60;99.90;;;;;;5049254;28;20440;-49
2021/11/15 05:36:50;;;;;;;15.60;11.07;;;6.60;99.90;;;;;;5054387;28;20462;-49
2021/11/15 05:39:17;;;;;;;16.20;11.60;;;6.60;99.90;;;;;;5054266;28;20440;-48
2021/11/15 05:41:44;;;;;;;20.43;10.97;;;6.60;99.90;;;;;;5053961;28;20450;-49
2021/11/15 05:44:11;;;;;;;16.27;11.20;;;6.50;99.90;;;;;;5054285;28;20480;-48
2021/11/15 05:46:39;;;;;;;14.40;9.93;;;6.50;99.90;;;;;;5054314;28;20521;-48
2021/11/15 05:49:07;;;;;;;14.70;10.10;;;6.50;99.90;;;;;;5053629;28;20458;-48
2021/11/15 05:51:34;;;;;;;12.93;8.80;;;6.60;99.90;;;;;;5053373;28;20505;-48
2021/11/15 05:54:01;;;;;;;13.43;9.50;;;6.60;99.90;;;;;;5054216;28;20431;-48
2021/11/15 05:56:28;;;;;;;12.47;8.87;;;6.50;99.90;;;;;;5054026;28;20494;-48
2021/11/15 05:58:55;;;;;;;12.90;8.60;;;6.50;99.90;;;;;;5052710;28;20447;-48
2021/11/15 06:01:22;;;;;;;13.57;9.07;;;6.60;99.90;;;;;;5053587;28;20494;-48
2021/11/15 06:03:49;;;;;;;13.63;9.77;;;6.60;99.90;;;;;;5053669;28;20484;-49
2021/11/15 06:06:18;;;;;;;12.70;9.43;;;6.50;99.90;;;;;;5041586;28;20450;-47
2021/11/15 06:08:45;;;;;;;11.20;8.57;;;6.60;99.90;;;;;;5049807;28;20508;-48
2021/11/15 06:11:12;;;;;;;15.13;9.40;;;6.60;99.90;;;;;;5053445;28;20452;-47
2021/11/15 06:13:39;;;;;;;12.67;8.77;;;6.50;99.90;;;;;;5053743;28;20517;-47
2021/11/15 06:16:06;;;;;;;12.77;8.30;;;6.50;99.90;;;;;;5053604;28;20455;-48
2021/11/15 06:18:33;;;;;;;14.90;9.60;;;6.60;99.90;;;;;;5052719;28;20508;-48
2021/11/15 06:21:00;;;;;;;14.17;9.37;;;6.60;99.90;;;;;;5053311;28;20457;-47
2021/11/15 06:23:29;;;;;;;10.83;7.80;;;6.60;99.90;;;;;;5053550;28;20472;-48
2021/11/15 06:25:56;;;;;;;13.30;8.67;;;6.60;99.90;;;;;;5052908;28;20949;-49
2021/11/15 06:28:23;;;;;;;14.50;8.63;;;6.40;99.90;;;;;;5052123;28;20460;-48
2021/11/15 06:30:50;;;;;;;10.93;7.90;;;6.50;99.90;;;;;;5050150;28;20455;-49
2021/11/15 06:33:18;;;;;;;10.60;7.33;;;6.40;99.90;;;;;;5053061;28;20476;-47
2021/11/15 06:35:45;;;;;;;11.27;7.47;;;6.30;99.90;;;;;;5053154;28;20448;-48
2021/11/15 06:38:12;;;;;;;10.07;7.40;;;6.30;99.90;;;;;;5052788;28;20523;-47
2021/11/15 06:40:41;;;;;;;9.40;6.60;;;6.30;99.90;;;;;;5052733;28;20575;-49
2021/11/15 06:43:08;;;;;;;10.73;6.93;;;6.30;99.90;;;;;;5053016;28;20552;-49
2021/11/15 06:45:35;;;;;;;10.47;7.10;;;6.40;99.90;;;;;;5053059;28;20555;-49
2021/11/15 06:48:04;;;;;;;10.97;7.43;;;6.40;99.90;;;;;;5053022;28;20459;-49
2021/11/15 06:50:31;;;;;;;9.07;7.17;;;6.40;99.90;;;;;;5052981;28;20525;-48
2021/11/15 06:52:58;;;;;;;10.87;7.00;;;6.40;99.90;;;;;;5052435;28;20957;-47
2021/11/15 06:55:26;;;;;;;10.00;7.03;;;6.30;99.90;;;;;;5052848;28;20507;-49
2021/11/15 06:57:54;;;;;;;11.73;6.93;;;6.30;99.90;;;;;;5051759;28;20513;-48
2021/11/15 07:00:25;;;;;;;10.20;6.93;;;6.30;99.90;;;;;;5047758;28;20464;-48
2021/11/15 07:02:54;;;;;;;13.23;7.80;;;6.40;99.90;;;;;;5045452;28;20479;-48
2021/11/15 07:05:22;;;;;;;11.83;7.63;;;6.40;99.90;;;;;;5052336;28;20539;-48
2021/11/15 07:07:49;;;;;;;9.00;6.93;;;6.60;99.90;;;;;;5050115;28;20909;-48
2021/11/15 07:10:17;;;;;;;10.93;8.03;;;6.60;99.90;;;;;;5034150;28;20445;-47
2021/11/15 07:12:44;;;;;;;14.00;7.80;;;6.60;99.90;;;;;;5049092;28;20468;-49
2021/11/15 07:15:14;;;;;;;11.63;8.03;;;6.60;99.90;;;;;;5052223;28;20451;-49
2021/11/15 07:17:41;;;;;;;10.27;7.40;;;6.70;99.90;;;;;;5032441;28;20809;-48
2021/11/15 07:20:09;;;;;;;11.87;8.20;;;6.80;99.90;;;;;;5042218;28;20473;-48
2021/11/15 07:22:39;;;;;;;11.90;7.67;;;6.90;99.90;;;;;;5047619;28;20482;-48
2021/11/15 07:25:07;;;;;;;11.80;8.07;;;7.00;99.90;;;;;;5047180;28;21117;-48
2021/11/15 07:27:34;;;;;;;11.73;8.20;;;7.00;99.90;;;;;;5036937;28;20449;-48
2021/11/15 07:30:02;;;;;;;10.60;7.10;;;7.10;99.90;;;;;;5043341;28;21030;-48
2021/11/15 07:32:32;;;;;;;10.23;7.53;;;7.20;99.90;;;;;;5049811;28;20562;-49
2021/11/15 07:34:59;;;;;;;11.20;7.80;;;7.30;99.90;;;;;;5050635;28;20831;-48
2021/11/15 07:37:30;;;;;;;10.33;7.10;;;7.40;99.90;;;;;;5042136;28;20448;-48
2021/11/15 07:39:57;;;;;;;9.40;6.83;;;7.50;99.90;;;;;;5050858;28;20561;-49
2021/11/15 07:42:24;;;;;;;7.97;5.77;;;7.60;99.90;;;;;;5051688;28;20539;-48
2021/11/15 07:44:51;;;;;;;7.43;5.40;;;7.90;99.90;;;;;;5050240;28;20839;-48
2021/11/15 07:47:19;;;;;;;7.33;5.27;;;8.10;99.90;;;;;;5044435;28;20448;-49
2021/11/15 07:49:47;;;;;;;6.80;5.10;;;8.00;99.90;;;;;;5045335;28;20522;-48
2021/11/15 07:52:17;;;;;;;5.77;4.47;;;8.10;99.90;;;;;;5038578;28;20471;-48
2021/11/15 07:54:45;;;;;;;6.70;4.87;;;8.20;99.90;;;;;;5043387;28;20545;-48
2021/11/15 07:57:13;;;;;;;5.80;4.83;;;8.00;99.90;;;;;;5047258;28;20480;-49
2021/11/15 07:59:40;;;;;;;7.30;5.00;;;7.90;99.90;;;;;;5045667;28;20513;-49
2021/11/15 08:02:08;;;;;;;7.20;5.33;;;7.90;99.90;;;;;;5051048;28;20479;-49
2021/11/15 08:04:35;;;;;;;6.20;5.33;;;7.90;99.90;;;;;;5047717;28;20567;-49
2021/11/15 08:07:04;;;;;;;7.67;6.37;;;8.00;99.90;;;;;;5051324;28;20455;-48
2021/11/15 08:09:32;;;;;;;8.50;5.57;;;7.90;99.90;;;;;;5047506;28;21030;-47
2021/11/15 08:12:04;;;;;;;6.80;5.53;;;8.00;99.90;;;;;;5044832;28;20479;-48
2021/11/15 08:14:32;;;;;;;6.90;5.37;;;8.20;99.90;;;;;;5050628;28;20485;-48
2021/11/15 08:16:59;;;;;;;5.83;5.23;;;8.20;99.90;;;;;;5049876;28;20957;-48
2021/11/15 08:19:27;;;;;;;6.37;5.53;;;8.40;99.90;;;;;;5050107;28;20509;-49
2021/11/15 08:21:54;;;;;;;7.57;5.63;;;8.60;99.90;;;;;;5044361;28;20529;-49
2021/11/15 08:24:54;;;;;;;7.13;5.80;;;8.70;99.90;;;;;;5046399;28;20485;-48
2021/11/15 08:27:23;;;;;;;5.00;4.43;;;8.90;99.90;;;;;;5033332;28;20452;-48
2021/11/15 08:29:50;;;;;;;5.73;4.30;;;9.20;99.90;;;;;;5045140;28;20995;-49
2021/11/15 08:32:24;;;;;;;5.60;5.00;;;9.30;99.90;;;;;;5051044;28;20480;-47
2021/11/15 08:34:51;;;;;;;6.33;4.70;;;9.30;99.90;;;;;;5049654;28;20447;-49
2021/11/15 08:37:19;;;;;;;6.43;4.57;;;9.20;99.90;;;;;;5051334;28;21018;-49
2021/11/15 08:39:46;;;;;;;4.23;3.83;;;9.30;99.90;;;;;;5051396;28;20490;-49
2021/11/15 08:42:13;;;;;;;4.47;3.87;;;9.50;99.90;;;;;;5039223;28;20522;-48
2021/11/15 08:44:46;;;;;;;4.77;4.17;;;9.80;99.90;;;;;;5039795;28;20577;-47
2021/11/15 08:47:13;;;;;;;5.40;4.60;;;10.20;99.90;;;;;;5045223;28;20458;-49
2021/11/15 08:49:40;;;;;;;4.37;3.97;;;10.60;99.90;;;;;;5093316;22;20505;-55
2021/11/15 08:52:08;;;;;;;4.23;3.80;;;11.10;99.90;;;;;;5070287;28;20935;-56
2021/11/15 08:54:35;;;;;;;5.10;4.60;;;10.80;99.90;;;;;;5054719;28;20531;-55
2021/11/15 08:57:04;;;;;;;4.20;3.80;;;10.90;99.90;;;;;;5069285;28;20493;-55
2021/11/15 08:59:32;;;;;;;12.40;6.00;;;11.30;99.90;;;;;;5063526;28;20483;-54
2021/11/15 09:02:01;;;;;;;6.60;4.43;;;11.70;99.90;;;;;;5067628;28;20455;-55
2021/11/15 09:04:29;;;;;;;5.73;4.17;;;12.00;99.90;;;;;;5062355;28;20463;-55
2021/11/15 09:06:56;;;;;;;6.80;5.03;;;12.20;99.90;;;;;;5070104;28;20547;-55
2021/11/15 09:09:28;;;;;;;5.90;4.67;;;12.40;99.90;;;;;;5069932;28;20471;-55
2021/11/15 09:11:58;;;;;;;8.03;5.60;;;12.20;99.90;;;;;;5059021;28;20457;-55
2021/11/15 09:14:25;;;;;;;8.77;5.83;;;12.20;99.90;;;;;;5071030;28;20486;-55
2021/11/15 09:16:53;;;;;;;7.13;5.00;;;12.30;99.90;;;;;;5065158;28;20496;-55
2021/11/15 09:19:22;;;;;;;5.10;4.30;;;12.70;99.90;;;;;;5064830;28;20474;-55
2021/11/15 09:21:50;;;;;;;7.60;5.43;;;12.90;99.90;;;;;;5056817;28;20448;-55
2021/11/15 09:24:18;;;;;;;7.97;5.50;;;13.00;99.90;;;;;;5064227;28;20450;-55
2021/11/15 09:26:45;;;;;;;6.40;5.10;;;12.70;99.90;;;;;;5059914;28;20801;-55
2021/11/15 09:29:13;;;;;;;6.80;4.90;;;12.80;99.90;;;;;;5069576;28;20466;-55
2021/11/15 09:31:41;;;;;;;6.40;5.13;;;12.90;99.90;;;;;;5061741;28;20940;-55
2021/11/15 09:34:08;;;;;;;7.57;5.43;;;12.80;99.90;;;;;;5071839;28;20541;-55
2021/11/15 09:36:37;;;;;;;6.87;4.83;;;12.60;99.90;;;;;;5074411;28;21009;-55
2021/11/15 09:39:08;;;;;;;7.80;5.77;;;12.80;99.90;;;;;;5070295;28;20471;-55
2021/11/15 09:41:37;;;;;;;8.00;5.70;;;13.10;99.90;;;;;;5066153;28;20463;-55
2021/11/15 09:44:06;;;;;;;8.30;6.00;;;13.30;99.90;;;;;;5069533;28;20988;-55
2021/11/15 09:46:34;;;;;;;10.50;6.37;;;12.20;99.90;;;;;;5068384;28;20486;-55
2021/11/15 09:49:05;;;;;;;9.87;6.50;;;11.80;99.90;;;;;;5070281;28;21017;-55
2021/11/15 09:51:33;;;;;;;8.33;6.10;;;11.90;99.90;;;;;;5068735;28;20447;-54
2021/11/15 09:54:05;;;;;;;12.30;5.30;;;12.00;99.90;;;;;;5066341;28;20444;-55
2021/11/15 09:56:33;;;;;;;8.43;6.17;;;12.30;99.90;;;;;;5063285;28;20439;-55
2021/11/15 09:59:00;;;;;;;11.53;6.70;;;11.90;99.90;;;;;;5076377;28;20478;-55
2021/11/15 10:01:27;;;;;;;9.20;5.90;;;11.30;99.90;;;;;;5072076;28;20455;-54
2021/11/15 10:03:54;;;;;;;9.63;6.23;;;11.30;99.90;;;;;;5054179;28;20443;-55
2021/11/15 10:06:22;;;;;;;9.20;6.40;;;11.50;99.90;;;;;;5059507;28;20483;-55
2021/11/15 10:08:51;;;;;;;9.43;6.07;;;11.30;99.90;;;;;;5063010;28;20514;-55
2021/11/15 10:11:21;;;;;;;10.57;6.97;;;11.50;99.90;;;;;;5068882;28;20965;-54
2021/11/15 10:13:49;;;;;;;8.90;5.60;;;11.10;99.90;;;;;;5072741;28;20462;-54
2021/11/15 10:16:18;;;;;;;9.33;6.00;;;11.00;99.90;;;;;;5070912;28;20915;-55
2021/11/15 10:18:53;;;;;;;9.83;6.70;;;11.00;99.90;;;;;;5072496;28;20493;-55
2021/11/15 10:21:24;;;;;;;8.67;5.80;;;10.90;99.90;;;;;;5068454;28;20492;-54
2021/11/15 10:23:56;;;;;;;9.60;6.20;;;10.70;99.90;;;;;;5069944;28;20463;-55
2021/11/15 10:26:31;;;;;;;10.30;6.03;;;10.70;99.90;;;;;;5064272;28;20475;-55
2021/11/15 10:29:03;;;;;;;7.23;5.47;;;10.60;99.90;;;;;;5067815;28;20513;-55
2021/11/15 10:31:37;;;;;;;8.80;5.67;;;10.50;99.90;;;;;;5074337;28;20531;-55
2021/11/15 10:34:06;;;;;;;7.83;6.00;;;10.10;99.90;;;;;;5069503;28;20463;-55
2021/11/15 10:37:10;;;;;;;7.40;5.60;;;10.00;99.90;;;;;;5064954;28;20871;-55
2021/11/15 10:39:47;;;;;;;359.00;315.13;;;10.50;99.90;;;;;;5068635;28;20490;-55
2021/11/15 10:42:18;;;;;;;492.43;442.57;;;10.60;99.90;;;;;;5061080;28;20463;-56
2021/11/15 10:44:52;;;;;;;44.45;23.45;;;10.40;99.90;;;;;;5066237;28;20451;-55
2021/11/15 10:47:25;;;;;;;58.15;31.17;;;10.40;99.90;;;;;;5060111;28;20863;-55
2021/11/15 10:50:05;;;;;;;136.00;50.05;;;10.20;99.90;;;;;;5067469;28;20473;-55
2021/11/15 10:52:36;;;;;;;;;;;;;;;;;;5064292;28;20067;-55
2021/11/15 10:55:04;;;;;;;;;;;;;;;;;;5071386;28;19974;-55
2021/11/15 10:57:32;;;;;;;;;;;;;;;;;;5066050;28;19951;-55
2021/11/15 11:00:26;;;;;;;;;;;10.80;99.90;;;;;;5066137;28;19967;-55
2021/11/15 11:02:55;;;;;;;;;;;11.20;99.90;;;;;;5019647;28;19920;-55
2021/11/15 11:05:23;;;;;;;;;;;11.20;99.90;;;;;;5066617;28;19921;-55
2021/11/15 11:07:50;;;;;;;;;;;;;;;;;;5066984;28;19958;-56
2021/11/15 11:10:18;;;;;;;;;;;10.90;99.90;;;;;;5066694;28;20572;-55
2021/11/15 11:12:46;;;;;;;;;;;;;;;;;;5066331;28;19973;-55
2021/11/15 11:15:13;;;;;;;;;;;;;;;;;;5066944;28;20362;-55
2021/11/15 11:17:40;;;;;;;;;;;;;;;;;;5066011;28;19990;-54
2021/11/15 11:20:24;;;;;;;;;;;11.10;99.90;;;;;;5065762;28;20382;-55
2021/11/15 11:23:06;;;;;;;;;;;;;;;;;;5068427;28;19940;-54
2021/11/15 11:25:34;;;;;;;;;;;11.20;99.90;;;;;;5064803;28;20384;-54
2021/11/15 11:28:23;;;;;;;;;;;11.80;99.90;;;;;;5060568;28;19931;-55
2021/11/15 11:30:50;;;;;;;;;;;12.30;99.90;;;;;;5065488;28;20401;-55
2021/11/15 11:33:17;;;;;;;;;;;13.00;99.90;;;;;;5065700;28;19920;-55
2021/11/15 11:35:44;;;;;;;;;;;;;;;;;;5066309;28;19974;-56
2021/11/15 11:38:11;;;;;;;;;;;;;;;;;;5065272;28;19928;-57
2021/11/15 11:40:40;;;;;;;;;;;12.00;99.90;;;;;;5065214;28;19925;-57
2021/11/15 11:43:07;;;;;;;;;;;;;;;;;;5065190;28;20302;-55
2021/11/15 11:45:34;;;;;;;;;;;11.50;99.90;;;;;;5066184;28;19928;-55
2021/11/15 11:48:01;;;;;;;;;;;;;;;;;;5060730;28;19982;-57
2021/11/15 11:50:29;;;;;;;;;;;;;;;;;;5064715;28;19966;-55
2021/11/15 11:52:57;;;;;;;;;;;;;;;;;;5061728;28;19920;-55
2021/11/15 11:55:24;;;;;;;;;;;;;;;;;;5065275;28;19948;-55
2021/11/15 11:57:52;;;;;;;;;;;12.00;99.90;;;;;;5067124;28;19932;-56
2021/11/15 12:00:19;;;;;;;;;;;;;;;;;;5062400;28;20404;-57
2021/11/15 12:02:46;;;;;;;;;;;11.90;99.90;;;;;;5065220;28;19958;-55
2021/11/15 12:05:14;;;;;;;;;;;;;;;;;;5065330;28;19920;-56
2021/11/15 12:07:41;;;;;;;;;;;;;;;;;;5060949;28;19968;-55
2021/11/15 12:10:09;;;;;;;;;;;;;;;;;;5064101;28;19928;-55
2021/11/15 12:12:54;;;;;;;;;;;12.60;99.90;;;;;;5064158;28;20021;-55
2021/11/15 12:15:21;;;;;;;;;;;;;;;;;;5068394;28;19981;-56
2021/11/15 12:17:50;;;;;;;;;;;12.70;99.90;;;;;;5067021;28;19925;-55
2021/11/15 12:20:16;;;;;;;;;;;12.20;99.90;;;;;;5064693;28;20374;-55
2021/11/15 12:22:44;;;;;;;;;;;;;;;;;;5069167;28;20005;-55
2021/11/15 12:25:12;;;;;;;;;;;11.30;99.90;;;;;;5051776;28;20386;-55
2021/11/15 12:27:40;;;;;;;;;;;;;;;;;;5065504;28;19935;-56
2021/11/15 12:30:13;;;;;;;;;;;10.60;99.90;;;;;;5071504;28;20023;-56
2021/11/15 12:32:40;;;;;;;;;;;;;;;;;;5071700;28;19947;-55
2021/11/15 12:35:07;;;;;;;;;;;;;;;;;;5071523;28;19954;-55
2021/11/15 12:37:34;;;;;;;;;;;;;;;;;;5070996;28;19946;-56
2021/11/15 12:40:03;;;;;;;;;;;10.10;99.90;;;;;;5071763;28;20393;-55
2021/11/15 12:42:33;;;;;;;;;;;;;;;;;;5071147;28;19947;-56
2021/11/15 12:45:00;;;;;;;;;;;;;;;;;;5070920;28;19982;-56
2021/11/15 12:47:39;;;;;;;;;;;9.70;99.90;;;;;;5071176;28;19921;-55
2021/11/15 12:50:06;;;;;;;;;;;;;;;;;;5071320;28;19935;-56
2021/11/15 12:52:35;;;;;;;;;;;9.30;99.90;;;;;;5071209;28;20336;-55
2021/11/15 12:55:02;;;;;;;;;;;;;;;;;;5072268;28;19920;-56
2021/11/15 12:57:34;;;;;;;;;;;9.30;99.90;;;;;;5072077;28;20003;-55
2021/11/15 13:00:02;;;;;;;;;;;9.30;99.90;;;;;;5074786;28;19920;-55
2021/11/15 13:02:33;;;;;;;;;;;9.40;99.90;;;;;;5077167;28;20019;-55
2021/11/15 13:05:00;;;;;;;;;;;;;;;;;;5075730;28;19921;-55
2021/11/15 13:07:29;;;;;;;;;;;9.60;99.90;;;;;;5073967;28;19925;-55
2021/11/15 13:09:56;;;;;;;;;;;;;;;;;;5074849;28;19924;-55
2021/11/15 13:12:23;;;;;;;;;;;;;;;;;;5074425;28;19924;-56
2021/11/15 13:14:52;;;;;;;;;;;9.90;99.90;;;;;;5074484;28;19924;-56
2021/11/15 13:17:20;;;;;;;;;;;;;;;;;;5074214;28;19920;-55
2021/11/15 13:19:48;;;;;;;;;;;10.10;99.90;;;;;;5074854;28;19920;-55